Chronik & Geschichte

Boeing Stearman am Flugplatz Konstanz

Mit seiner 107-jährigen Geschichte ist Konstanz der älteste Verkehrslandeplatz Deutschlands. Lesen Sie unsere Festschrift zum 100-jährigen Platzjubiläum oder entdecken Sie die ausführliche Flugplatzchronik auf der Website der Initiative PRO Flugplatz Konstanz.

Live am Platz

Die Bilder unserer Webcams werden alle 5 Minuten aktualisiert.

Sonnenaufgang:

06:50 UTC / 07:50 Lokal

Sonnenuntergang:

15:35 UTC / 16:35 Lokal

METAR (02.12.2021 16:20 UTC):

EDNY 021620Z 24005KT 9999 FEW035 BKN052 01/01 Q1003
VFR

TAF (02.12.2021 11:00 UTC):

TAF EDNY 021100Z 0212/0312 26010KT 9999 FEW010 BKN020 PROB30 TEMPO 0212/0216 4000 SHRASN BKN012TCU BECMG 0217/0219 24005KT PROB30 TEMPO 0218/0304 3000 -SHSN BKN012TCU

Alle Angaben unverbindlich und ohne Gewähr. Zeiten genähert.

Für den Verkehrslandeplatz Konstanz werden keine offiziellen Wetterinformationen ausgegeben. Daher werden zur Orientierung Daten des nahegelegenen Flughafens Friedrichshafen dargestellt.

Das Landeentgelt kann bei uns auch mit aerops bezahlt werden. Die App für's Handy ist kostenfrei erhältlich.